MMVA/VSA METAR and TAF weather

Enter ICAO airport designator
Station Type Date Time Source
MMVA METAR 2022/01/28 23:50 UTC NOAA

MMVA 282350Z 00000KT 3SM -RA BKN015CB BKN070 24/22 A3005 RMK SLP174 52010 910 8/360 PRESRR -RA B41


Station Type Date Time Source
MMVA Decoded METAR 2022/01/28 23:50 UTC NOAA

Villahermosa , Mexico (MMVA) 18-00N 092-49W
Jan 28, 2022 - 06:50 PM EST / 2022.01.28 2350 UTC
Wind: Calm:0
Visibility: 3 mile(s):0
Sky conditions: mostly cloudy
Weather: light rain; Cumulonimbus clouds observed
Temperature: 75 F (24 C)
Dew Point: 71 F (22 C)
Relative Humidity: 88%
Pressure (altimeter): 30.05 in. Hg (1017 hPa)
Pressure tendency: rising rapidly - 0.03 inches (1.0 hPa) higher than three hours ago
ob: MMVA 282350Z 00000KT 3SM -RA BKN015CB BKN070 24/22 A3005 RMK SLP174 52010 910 8/360 PRESRR -RA B41
cycle: 0

Station Type Date Time Source
MMVA TAF 2022/01/28 18:42 UTC NOAA

TAF MMVA 281735Z 2818/2918 36015KT 5SM HZ BKN015 OVC020
TEMPO 2821/2901 4SM -RA BR OVC010
FM290200 35015KT 5SM -RA BR OVC010
BECMG 2905/2906 5SM BR HZ
FM291000 04010KT 3SM BR HZ OVC010
TEMPO 2911/2915 1SM -DZ BR BKN005 OVC010
FM291700 02015KT 5SM -RA BKN010 OVC020

Example: see airport list